createdAt,value
2023-04-22T00:01:10.774Z,11.40
2023-04-22T00:03:39.085Z,11.40
2023-04-22T00:06:06.525Z,11.40
2023-04-22T00:08:33.552Z,11.20
2023-04-22T00:11:00.664Z,11.20
2023-04-22T00:13:27.927Z,11.10
2023-04-22T00:15:55.045Z,11.00
2023-04-22T00:18:22.112Z,10.90
2023-04-22T00:20:49.172Z,10.90
2023-04-22T00:23:16.328Z,10.90
2023-04-22T00:25:43.412Z,10.80
2023-04-22T00:28:10.400Z,10.70
2023-04-22T00:30:37.543Z,10.60
2023-04-22T00:33:04.683Z,10.60
2023-04-22T00:35:31.813Z,10.60
2023-04-22T00:37:58.822Z,10.50
2023-04-22T00:40:25.898Z,10.60
2023-04-22T00:42:53.419Z,10.60
2023-04-22T00:45:21.128Z,10.70
2023-04-22T00:47:49.098Z,10.70
2023-04-22T00:50:16.679Z,10.70
2023-04-22T00:52:43.857Z,10.70
2023-04-22T00:55:12.137Z,10.80
2023-04-22T00:57:40.579Z,10.80
2023-04-22T01:00:09.996Z,10.80
2023-04-22T01:02:40.849Z,10.90
2023-04-22T01:05:11.808Z,10.90
2023-04-22T01:07:38.894Z,10.90
2023-04-22T01:10:06.666Z,10.80
2023-04-22T01:12:33.692Z,10.80
2023-04-22T01:15:04.293Z,10.80
2023-04-22T01:17:33.841Z,10.80
2023-04-22T01:20:01.799Z,10.80
2023-04-22T01:22:36.036Z,10.80
2023-04-22T01:25:04.088Z,10.80
2023-04-22T01:27:31.359Z,10.80
2023-04-22T01:29:58.606Z,10.80
2023-04-22T01:32:25.833Z,10.80
2023-04-22T01:34:53.166Z,10.80
2023-04-22T01:37:20.314Z,10.80
2023-04-22T01:39:48.171Z,10.80
2023-04-22T01:42:15.954Z,10.80
2023-04-22T01:45:11.332Z,10.80
2023-04-22T01:47:38.407Z,10.80
2023-04-22T01:50:05.972Z,10.70
2023-04-22T01:52:33.107Z,10.70
2023-04-22T01:55:01.416Z,10.60
2023-04-22T01:57:28.403Z,10.60
2023-04-22T01:59:55.464Z,10.60
2023-04-22T02:02:22.809Z,10.60
2023-04-22T02:04:50.138Z,10.60
2023-04-22T02:07:17.183Z,10.60
2023-04-22T02:09:44.457Z,10.60
2023-04-22T02:12:11.851Z,10.60
2023-04-22T02:14:40.461Z,10.60
2023-04-22T02:17:07.464Z,10.60
2023-04-22T02:19:34.561Z,10.60
2023-04-22T02:22:01.995Z,10.60
2023-04-22T02:24:29.015Z,10.60
2023-04-22T02:26:56.137Z,10.60
2023-04-22T02:29:24.431Z,10.50
2023-04-22T02:31:51.738Z,10.60
2023-04-22T02:34:18.929Z,10.60
2023-04-22T02:36:46.944Z,10.60
2023-04-22T02:39:14.020Z,10.60
2023-04-22T02:41:41.248Z,10.60
2023-04-22T02:44:08.786Z,10.60
2023-04-22T02:46:35.850Z,10.50
2023-04-22T02:49:02.954Z,10.40
2023-04-22T02:51:30.000Z,10.40
2023-04-22T02:53:57.234Z,10.30
2023-04-22T02:56:24.229Z,10.20
2023-04-22T02:58:51.256Z,10.20
2023-04-22T03:01:18.382Z,10.20
2023-04-22T03:03:46.265Z,10.30
2023-04-22T03:06:19.422Z,10.40
2023-04-22T03:08:46.421Z,10.30
2023-04-22T03:11:14.017Z,10.40
2023-04-22T03:13:42.378Z,10.30
2023-04-22T03:16:09.496Z,10.30
2023-04-22T03:18:38.396Z,10.40
2023-04-22T03:21:05.739Z,10.40
2023-04-22T03:23:32.918Z,10.40
2023-04-22T03:26:01.115Z,10.40
2023-04-22T03:28:28.204Z,10.50
2023-04-22T03:30:55.235Z,10.50
2023-04-22T03:33:22.932Z,10.50
2023-04-22T03:35:56.830Z,10.50
2023-04-22T03:38:24.695Z,10.50
2023-04-22T03:40:52.029Z,10.50
2023-04-22T03:43:37.426Z,10.40
2023-04-22T03:46:08.417Z,10.40
2023-04-22T03:48:39.202Z,10.40
2023-04-22T03:51:11.447Z,10.40
2023-04-22T03:53:40.639Z,10.40
2023-04-22T03:56:09.894Z,10.40
2023-04-22T03:58:41.277Z,10.40
2023-04-22T04:01:09.125Z,10.40
2023-04-22T04:03:37.081Z,10.30
2023-04-22T04:06:05.164Z,10.40
2023-04-22T04:08:32.192Z,10.30
2023-04-22T04:11:00.137Z,10.30
2023-04-22T04:13:32.494Z,10.30
2023-04-22T04:16:21.826Z,10.20
2023-04-22T04:18:55.224Z,10.20
2023-04-22T04:21:24.244Z,10.20
2023-04-22T04:23:52.865Z,10.30
2023-04-22T04:26:25.330Z,10.30
2023-04-22T04:28:57.626Z,10.30
2023-04-22T04:31:24.978Z,10.30
2023-04-22T04:33:53.424Z,10.30
2023-04-22T04:36:20.497Z,10.30
2023-04-22T04:38:48.979Z,10.30
2023-04-22T04:41:16.050Z,10.30
2023-04-22T04:43:46.426Z,10.40
2023-04-22T04:46:34.898Z,10.40
2023-04-22T04:49:02.995Z,10.50
2023-04-22T04:51:33.013Z,10.50
2023-04-22T04:54:02.392Z,10.50
2023-04-22T04:56:35.196Z,10.50
2023-04-22T04:59:02.738Z,10.50
2023-04-22T05:01:30.036Z,10.50
2023-04-22T05:04:02.965Z,10.50
2023-04-22T05:06:31.577Z,10.50
2023-04-22T05:09:03.475Z,10.60
2023-04-22T05:11:30.832Z,10.60
2023-04-22T05:14:00.998Z,10.70
2023-04-22T05:16:33.533Z,10.60
2023-04-22T05:19:01.246Z,10.60
2023-04-22T05:21:28.205Z,10.60
2023-04-22T05:23:55.602Z,10.60
2023-04-22T05:26:22.648Z,10.70
2023-04-22T05:28:50.584Z,10.70
2023-04-22T05:31:19.076Z,10.80
2023-04-22T05:33:47.081Z,10.90
2023-04-22T05:36:14.529Z,10.90
2023-04-22T05:38:42.383Z,11.00
2023-04-22T05:41:09.433Z,11.00
2023-04-22T05:43:36.492Z,11.00
2023-04-22T05:46:11.373Z,11.00
2023-04-22T05:48:40.618Z,11.10
2023-04-22T05:51:22.487Z,11.10
2023-04-22T05:53:50.937Z,11.20
2023-04-22T05:56:18.330Z,11.30
2023-04-22T05:58:45.705Z,11.20
2023-04-22T06:01:17.340Z,11.20
2023-04-22T06:03:57.565Z,11.10
2023-04-22T06:06:26.252Z,11.10
2023-04-22T06:08:53.423Z,10.90
2023-04-22T06:11:20.737Z,10.80
2023-04-22T06:13:47.814Z,10.80
2023-04-22T06:16:15.964Z,10.90
2023-04-22T06:18:43.706Z,10.90
2023-04-22T06:21:12.556Z,11.00
2023-04-22T06:23:40.111Z,10.90
2023-04-22T06:26:07.264Z,10.90
2023-04-22T06:28:36.023Z,10.80
2023-04-22T06:31:07.997Z,10.80
2023-04-22T06:33:35.908Z,10.90
2023-04-22T06:36:04.980Z,10.90
2023-04-22T06:38:32.148Z,10.90
2023-04-22T06:41:18.087Z,10.90
2023-04-22T06:43:49.794Z,11.00
2023-04-22T06:46:42.784Z,11.20
2023-04-22T06:50:33.220Z,11.40
2023-04-22T06:53:00.322Z,11.60
2023-04-22T06:55:27.306Z,11.60
2023-04-22T06:57:54.279Z,11.70
2023-04-22T07:00:21.433Z,11.80
2023-04-22T07:02:48.516Z,11.90
2023-04-22T07:05:16.410Z,12.00
2023-04-22T07:07:44.016Z,12.10
2023-04-22T07:10:17.240Z,12.10
2023-04-22T07:13:02.806Z,12.20
2023-04-22T07:15:29.846Z,12.20
2023-04-22T07:22:22.516Z,12.40
2023-04-22T07:24:49.511Z,12.40
2023-04-22T07:27:16.589Z,12.40
2023-04-22T07:29:43.974Z,12.50
2023-04-22T07:32:11.081Z,12.50
2023-04-22T07:34:38.139Z,12.40
2023-04-22T07:37:07.298Z,12.40
2023-04-22T07:39:34.313Z,12.50
2023-04-22T07:42:02.273Z,12.60
2023-04-22T07:44:29.278Z,12.80
2023-04-22T07:46:56.272Z,12.90
2023-04-22T07:49:24.143Z,13.20
2023-04-22T07:51:51.485Z,13.40
2023-04-22T07:54:18.472Z,13.70
2023-04-22T07:56:45.600Z,13.90
2023-04-22T07:59:12.574Z,14.20
2023-04-22T08:01:39.627Z,14.40
2023-04-22T08:04:08.041Z,14.50
2023-04-22T08:06:35.404Z,14.80
2023-04-22T08:09:02.316Z,14.90
2023-04-22T08:11:29.317Z,15.10
2023-04-22T08:13:56.282Z,15.30
2023-04-22T08:16:23.442Z,15.50
2023-04-22T08:18:52.296Z,15.60
2023-04-22T08:21:19.303Z,15.80
2023-04-22T08:23:48.366Z,15.90
2023-04-22T08:26:17.013Z,16.10
2023-04-22T08:28:44.135Z,16.30
2023-04-22T08:31:12.935Z,16.50
2023-04-22T08:33:43.352Z,16.60
2023-04-22T08:36:11.209Z,16.70
2023-04-22T08:38:38.197Z,16.70
2023-04-22T08:41:07.157Z,16.80
2023-04-22T08:43:34.774Z,16.90
2023-04-22T08:46:02.327Z,17.00
2023-04-22T08:48:29.485Z,17.20
2023-04-22T08:50:57.982Z,17.40
2023-04-22T08:53:25.148Z,17.60
2023-04-22T08:55:55.787Z,17.80
2023-04-22T08:58:23.743Z,18.00
2023-04-22T09:00:51.106Z,18.30
2023-04-22T09:03:26.763Z,18.70
2023-04-22T09:05:55.467Z,19.00
2023-04-22T09:08:22.639Z,19.20
2023-04-22T09:11:17.544Z,19.40
2023-04-22T09:13:57.117Z,19.70
2023-04-22T09:16:24.332Z,19.90
2023-04-22T09:18:51.666Z,19.90
2023-04-22T09:21:45.857Z,20.10
2023-04-22T09:24:16.478Z,20.40
2023-04-22T09:26:43.470Z,20.60
2023-04-22T09:29:15.528Z,20.70
2023-04-22T09:31:42.727Z,20.90
2023-04-22T09:34:09.937Z,21.10
2023-04-22T09:36:40.699Z,21.10
2023-04-22T09:39:26.232Z,21.10
2023-04-22T09:41:56.749Z,21.20
2023-04-22T09:44:27.845Z,21.00
2023-04-22T09:46:59.666Z,21.00
2023-04-22T09:49:27.906Z,20.80
2023-04-22T09:51:58.354Z,20.60
2023-04-22T09:54:27.442Z,20.40
2023-04-22T09:57:27.874Z,20.30
2023-04-22T09:59:59.248Z,20.10
2023-04-22T10:02:30.373Z,19.90
2023-04-22T10:04:58.816Z,19.70
2023-04-22T10:07:31.873Z,19.70
2023-04-22T10:09:59.201Z,19.70
2023-04-22T10:12:35.348Z,19.80
2023-04-22T10:15:07.694Z,19.70
2023-04-22T10:17:38.408Z,19.70
2023-04-22T10:20:13.607Z,19.70
2023-04-22T10:22:43.015Z,19.80
2023-04-22T10:25:21.024Z,19.90
2023-04-22T10:27:54.905Z,20.10
2023-04-22T10:30:30.631Z,20.30
2023-04-22T10:33:31.725Z,20.30
2023-04-22T10:36:19.359Z,20.40
2023-04-22T10:38:55.610Z,20.50
2023-04-22T10:41:34.282Z,20.60
2023-04-22T10:44:06.308Z,20.60
2023-04-22T10:46:34.664Z,20.80
2023-04-22T10:49:09.000Z,20.90
2023-04-22T10:51:46.821Z,20.80
2023-04-22T10:54:28.120Z,20.70
2023-04-22T10:57:19.363Z,20.60
2023-04-22T10:59:54.156Z,20.70
2023-04-22T11:02:22.844Z,20.90
2023-04-22T11:04:52.327Z,21.00
2023-04-22T11:07:28.093Z,21.10
2023-04-22T11:10:09.919Z,21.30
2023-04-22T11:12:39.660Z,21.30
2023-04-22T11:15:07.297Z,21.40
2023-04-22T11:17:35.689Z,21.60
2023-04-22T11:20:04.899Z,21.70
2023-04-22T11:22:39.494Z,21.90
2023-04-22T11:25:07.507Z,22.00
2023-04-22T11:27:34.524Z,22.10
2023-04-22T11:30:04.870Z,22.20
2023-04-22T11:32:33.045Z,22.20
2023-04-22T11:35:07.103Z,22.30
2023-04-22T11:37:57.910Z,22.40
2023-04-22T11:40:31.623Z,22.60
2023-04-22T11:43:01.631Z,22.70
2023-04-22T11:45:30.728Z,22.90
2023-04-22T11:47:58.489Z,23.10
2023-04-22T11:50:33.118Z,23.20
2023-04-22T11:53:21.118Z,23.30
2023-04-22T11:55:51.611Z,23.50
2023-04-22T11:58:27.337Z,23.70
2023-04-22T12:00:56.366Z,24.00
2023-04-22T12:03:26.034Z,24.30
2023-04-22T12:06:16.446Z,24.60
2023-04-22T12:08:45.004Z,24.50
2023-04-22T12:11:12.758Z,24.60
2023-04-22T12:13:42.419Z,24.80
2023-04-22T12:16:19.394Z,24.90
2023-04-22T12:18:55.959Z,25.00
2023-04-22T12:21:25.191Z,25.00
2023-04-22T12:24:00.907Z,24.90
2023-04-22T12:26:28.278Z,24.90
2023-04-22T12:28:58.036Z,25.00
2023-04-22T12:31:26.204Z,25.10
2023-04-22T12:33:54.144Z,24.90
2023-04-22T12:36:21.623Z,24.70
2023-04-22T12:38:48.745Z,24.60
2023-04-22T12:41:16.674Z,24.70
2023-04-22T12:43:43.776Z,24.60
2023-04-22T12:46:11.028Z,24.50
2023-04-22T12:48:38.357Z,24.40
2023-04-22T12:51:06.822Z,24.40
2023-04-22T12:53:34.379Z,24.40
2023-04-22T12:56:01.593Z,24.60
2023-04-22T12:58:28.684Z,24.50
2023-04-22T13:00:55.735Z,24.40
2023-04-22T13:03:23.211Z,24.30
2023-04-22T13:05:50.480Z,24.20
2023-04-22T13:08:18.397Z,24.00
2023-04-22T13:10:45.698Z,23.90
2023-04-22T13:13:17.997Z,23.90
2023-04-22T13:15:54.079Z,23.90
2023-04-22T13:18:22.985Z,23.90
2023-04-22T13:20:50.010Z,23.80
2023-04-22T13:23:17.497Z,23.90
2023-04-22T13:25:44.628Z,24.00
2023-04-22T13:28:11.827Z,23.90
2023-04-22T13:30:40.977Z,23.70
2023-04-22T13:33:07.979Z,23.50
2023-04-22T13:35:35.613Z,23.30
2023-04-22T13:38:02.879Z,23.20
2023-04-22T13:40:30.062Z,22.90
2023-04-22T13:42:57.266Z,22.60
2023-04-22T13:45:25.768Z,22.30
2023-04-22T13:48:04.711Z,22.10
2023-04-22T13:50:31.639Z,22.00
2023-04-22T13:52:58.694Z,21.90
2023-04-22T13:55:26.804Z,21.90
2023-04-22T13:57:53.912Z,21.80
2023-04-22T14:00:21.220Z,21.80
2023-04-22T14:02:48.579Z,21.80
2023-04-22T14:05:15.861Z,21.80
2023-04-22T14:07:42.822Z,21.80
2023-04-22T14:10:12.203Z,21.90
2023-04-22T14:12:40.335Z,22.10
2023-04-22T14:15:10.874Z,22.40
2023-04-22T14:17:38.670Z,22.60
2023-04-22T14:20:06.815Z,22.90
2023-04-22T14:22:33.894Z,23.00
2023-04-22T14:25:01.840Z,23.00
2023-04-22T14:27:28.874Z,23.10
2023-04-22T14:29:55.935Z,23.20
2023-04-22T14:32:25.374Z,23.10
2023-04-22T14:34:52.805Z,23.00
2023-04-22T14:37:20.189Z,22.70
2023-04-22T14:39:47.877Z,22.40
2023-04-22T14:42:16.372Z,22.20
2023-04-22T14:44:43.580Z,22.00
2023-04-22T14:47:10.634Z,21.90
2023-04-22T14:49:37.852Z,21.70
2023-04-22T14:52:06.930Z,21.50
2023-04-22T14:54:34.313Z,21.20
2023-04-22T14:57:01.784Z,21.00
2023-04-22T14:59:28.867Z,20.80
2023-04-22T15:01:55.868Z,20.80
2023-04-22T15:04:23.818Z,20.70
2023-04-22T15:06:50.928Z,20.60
2023-04-22T15:09:17.901Z,20.60
2023-04-22T15:11:44.820Z,20.50
2023-04-22T15:14:11.800Z,20.50
2023-04-22T15:16:38.886Z,20.60
2023-04-22T15:19:05.946Z,20.60
2023-04-22T15:21:33.353Z,20.50
2023-04-22T15:24:00.373Z,20.50
2023-04-22T15:26:27.460Z,20.30
2023-04-22T15:28:54.509Z,20.30
2023-04-22T15:31:21.562Z,20.20
2023-04-22T15:33:48.649Z,20.30
2023-04-22T15:36:18.343Z,20.30
2023-04-22T15:38:45.498Z,20.40
2023-04-22T15:41:12.720Z,20.40
2023-04-22T15:43:39.803Z,20.50
2023-04-22T15:46:08.561Z,20.50
2023-04-22T15:48:35.645Z,20.60
2023-04-22T15:51:02.746Z,20.70
2023-04-22T15:53:50.603Z,20.80
2023-04-22T15:56:17.620Z,20.80
2023-04-22T15:58:44.975Z,20.80
2023-04-22T16:01:19.214Z,20.90
2023-04-22T16:03:48.331Z,20.90
2023-04-22T16:06:16.619Z,20.80
2023-04-22T16:08:45.438Z,20.80
2023-04-22T16:11:13.860Z,20.70
2023-04-22T16:13:41.303Z,20.80
2023-04-22T16:16:08.963Z,20.80
2023-04-22T16:18:36.156Z,20.70
2023-04-22T16:21:04.402Z,20.70
2023-04-22T16:23:32.315Z,20.70
2023-04-22T16:25:59.375Z,20.70
2023-04-22T16:28:26.443Z,20.70
2023-04-22T16:30:53.394Z,20.60
2023-04-22T16:33:20.343Z,20.60
2023-04-22T16:35:47.238Z,20.60
2023-04-22T16:38:14.190Z,20.60
2023-04-22T16:40:41.290Z,20.60
2023-04-22T16:43:09.479Z,20.50
2023-04-22T16:45:36.551Z,20.40
2023-04-22T16:48:03.758Z,20.50
2023-04-22T16:50:30.826Z,20.50
2023-04-22T16:52:58.096Z,20.40
2023-04-22T16:55:25.093Z,20.40
2023-04-22T16:57:52.081Z,20.30
2023-04-22T17:00:19.031Z,20.20
2023-04-22T17:02:46.172Z,20.10
2023-04-22T17:05:13.179Z,20.10
2023-04-22T17:07:40.171Z,20.00
2023-04-22T17:10:07.775Z,20.00
2023-04-22T17:12:35.107Z,20.00
2023-04-22T17:15:02.022Z,20.00
2023-04-22T17:17:28.979Z,20.00
2023-04-22T17:19:55.909Z,20.10
2023-04-22T17:22:24.870Z,20.00
2023-04-22T17:24:52.164Z,20.10
2023-04-22T17:27:19.274Z,20.00
2023-04-22T17:29:46.717Z,19.90
2023-04-22T17:32:13.795Z,19.90
2023-04-22T17:34:41.041Z,19.90
2023-04-22T17:37:08.206Z,19.80
2023-04-22T17:39:35.220Z,19.80
2023-04-22T17:46:20.238Z,19.70
2023-04-22T17:48:47.293Z,19.70
2023-04-22T17:51:14.669Z,19.60
2023-04-22T17:53:42.110Z,19.60
2023-04-22T17:56:09.384Z,19.60
2023-04-22T17:58:39.728Z,19.50
2023-04-22T18:01:07.434Z,19.50
2023-04-22T18:03:35.124Z,19.40
2023-04-22T18:06:20.590Z,19.40
2023-04-22T18:09:48.437Z,19.30
2023-04-22T18:13:10.948Z,19.30
2023-04-22T18:16:03.361Z,19.20
2023-04-22T18:18:32.220Z,19.10
2023-04-22T18:21:00.834Z,19.10
2023-04-22T18:23:46.557Z,19.00
2023-04-22T18:26:13.506Z,19.00
2023-04-22T18:28:41.211Z,18.90
2023-04-22T18:31:08.462Z,18.90
2023-04-22T18:33:35.555Z,18.80
2023-04-22T18:36:02.788Z,18.80
2023-04-22T18:38:29.845Z,18.70
2023-04-22T18:40:56.945Z,18.70
2023-04-22T18:43:31.217Z,18.60
2023-04-22T18:45:58.330Z,18.60
2023-04-22T18:48:25.899Z,18.50
2023-04-22T18:50:53.038Z,18.50
2023-04-22T18:53:20.217Z,18.40
2023-04-22T18:55:47.313Z,18.40
2023-04-22T18:58:14.339Z,18.40
2023-04-22T19:01:07.029Z,18.30
2023-04-22T19:03:34.316Z,18.30
2023-04-22T19:06:01.808Z,18.20
2023-04-22T19:08:28.907Z,18.00
2023-04-22T19:10:56.173Z,17.90
2023-04-22T19:15:57.474Z,17.80
2023-04-22T19:18:24.798Z,17.80
2023-04-22T19:20:52.793Z,17.80
2023-04-22T19:23:20.787Z,17.70
2023-04-22T19:25:48.910Z,17.70
2023-04-22T19:28:16.234Z,17.60
2023-04-22T19:30:43.560Z,17.30
2023-04-22T19:33:10.807Z,17.10
2023-04-22T19:35:37.733Z,17.00
2023-04-22T19:38:04.920Z,16.90
2023-04-22T19:40:32.849Z,16.80
2023-04-22T19:43:00.439Z,16.70
2023-04-22T19:45:27.697Z,16.80
2023-04-22T19:47:57.434Z,16.80
2023-04-22T19:50:24.503Z,16.70
2023-04-22T19:52:59.543Z,16.60
2023-04-22T19:55:27.610Z,16.50
2023-04-22T19:57:55.169Z,16.50
2023-04-22T20:00:22.570Z,16.30
2023-04-22T20:02:49.787Z,16.20
2023-04-22T20:05:18.702Z,16.20
2023-04-22T20:07:49.402Z,16.20
2023-04-22T20:10:17.210Z,16.10
2023-04-22T20:12:45.920Z,16.10
2023-04-22T20:15:13.417Z,16.10
2023-04-22T20:17:40.744Z,16.00
2023-04-22T20:20:13.620Z,16.10
2023-04-22T20:22:42.328Z,16.10
2023-04-22T20:25:12.989Z,16.00
2023-04-22T20:27:40.654Z,15.90
2023-04-22T20:30:09.050Z,15.80
2023-04-22T20:33:05.030Z,15.70
2023-04-22T20:35:32.458Z,15.60
2023-04-22T20:38:00.745Z,15.50
2023-04-22T20:40:29.085Z,15.40
2023-04-22T20:42:58.853Z,15.40
2023-04-22T20:45:27.382Z,15.40
2023-04-22T20:47:54.591Z,15.30
2023-04-22T20:50:21.768Z,15.20
2023-04-22T20:52:49.281Z,15.00
2023-04-22T20:55:17.208Z,14.90
2023-04-22T20:57:47.569Z,14.90
2023-04-22T21:00:16.338Z,14.90
2023-04-22T21:02:46.278Z,14.90
2023-04-22T21:05:14.060Z,14.90
2023-04-22T21:07:41.841Z,14.90
2023-04-22T21:10:09.582Z,14.90
2023-04-22T21:12:38.210Z,14.90
2023-04-22T21:15:06.202Z,14.80
2023-04-22T21:17:35.504Z,14.80
2023-04-22T21:20:05.047Z,14.80
2023-04-22T21:22:32.890Z,14.90
2023-04-22T21:25:00.838Z,14.80
2023-04-22T21:27:28.167Z,14.80
2023-04-22T21:29:55.460Z,14.70
2023-04-22T21:32:22.520Z,14.60
2023-04-22T21:34:49.485Z,14.50
2023-04-22T21:37:16.463Z,14.40
2023-04-22T21:39:43.526Z,14.30
2023-04-22T21:42:10.686Z,14.20
2023-04-22T21:44:38.323Z,14.20
2023-04-22T21:47:06.610Z,14.10
2023-04-22T21:49:33.714Z,14.00
2023-04-22T21:52:01.214Z,13.80
2023-04-22T21:54:28.368Z,13.70
2023-04-22T21:56:56.318Z,13.60
2023-04-22T21:59:24.849Z,13.60
2023-04-22T22:01:52.232Z,13.60
2023-04-22T22:04:19.434Z,13.60
2023-04-22T22:06:46.587Z,13.50
2023-04-22T22:09:14.264Z,13.40
2023-04-22T22:11:41.336Z,13.40
2023-04-22T22:14:08.402Z,13.40
2023-04-22T22:16:35.449Z,13.30
2023-04-22T22:19:05.502Z,13.30
2023-04-22T22:21:33.294Z,13.20
2023-04-22T22:24:00.505Z,13.20
2023-04-22T22:26:28.089Z,13.10
2023-04-22T22:28:55.648Z,13.10
2023-04-22T22:31:36.945Z,13.10
2023-04-22T22:34:03.983Z,13.10
2023-04-22T22:36:31.424Z,13.10
2023-04-22T22:38:58.726Z,13.10
2023-04-22T22:41:25.754Z,13.20
2023-04-22T22:43:52.809Z,13.30
2023-04-22T22:46:19.894Z,13.40
2023-04-22T22:48:47.137Z,13.40
2023-04-22T22:51:17.155Z,13.40
2023-04-22T22:53:45.479Z,13.40
2023-04-22T22:56:14.657Z,13.40
2023-04-22T22:58:41.741Z,13.40
2023-04-22T23:01:08.827Z,13.40
2023-04-22T23:03:37.298Z,13.50
2023-04-22T23:06:05.084Z,13.40
2023-04-22T23:08:32.130Z,13.30
2023-04-22T23:10:59.188Z,13.20
2023-04-22T23:13:26.363Z,13.10
2023-04-22T23:15:53.375Z,13.10
2023-04-22T23:18:20.583Z,13.10
2023-04-22T23:20:48.148Z,13.10
2023-04-22T23:23:18.188Z,13.10
2023-04-22T23:25:46.840Z,13.10
2023-04-22T23:28:14.213Z,13.10
2023-04-22T23:30:42.477Z,13.10
2023-04-22T23:33:12.632Z,13.00
2023-04-22T23:35:41.789Z,13.00
2023-04-22T23:38:11.157Z,13.00
2023-04-22T23:40:38.162Z,13.00
2023-04-22T23:43:05.229Z,12.90
2023-04-22T23:45:32.299Z,12.80
2023-04-22T23:47:59.400Z,12.80
2023-04-22T23:50:26.476Z,12.80
2023-04-22T23:52:53.522Z,12.80
2023-04-22T23:55:20.904Z,12.80
2023-04-22T23:57:48.199Z,12.70
